sensor_id;sensor_type;location;lat;lon;timestamp;P1;durP1;ratioP1;P2;durP2;ratioP2
18090;SDS011;9172;49.948;9.208;2023-12-20T00:00:15;4.90;;;2.93;;
18090;SDS011;9172;49.948;9.208;2023-12-20T00:02:45;5.73;;;2.67;;
18090;SDS011;9172;49.948;9.208;2023-12-20T00:05:14;6.37;;;3.03;;
18090;SDS011;9172;49.948;9.208;2023-12-20T00:10:31;5.27;;;2.93;;
18090;SDS011;9172;49.948;9.208;2023-12-20T00:13:00;5.30;;;2.60;;
18090;SDS011;9172;49.948;9.208;2023-12-20T00:15:29;4.83;;;2.30;;
18090;SDS011;9172;49.948;9.208;2023-12-20T00:17:57;4.10;;;2.27;;
18090;SDS011;9172;49.948;9.208;2023-12-20T00:20:27;4.40;;;2.67;;
18090;SDS011;9172;49.948;9.208;2023-12-20T00:22:56;4.43;;;2.20;;
18090;SDS011;9172;49.948;9.208;2023-12-20T00:25:25;8.37;;;2.37;;
18090;SDS011;9172;49.948;9.208;2023-12-20T00:27:54;3.03;;;1.90;;
18090;SDS011;9172;49.948;9.208;2023-12-20T00:30:22;2.97;;;1.83;;
18090;SDS011;9172;49.948;9.208;2023-12-20T00:32:51;3.93;;;1.63;;
18090;SDS011;9172;49.948;9.208;2023-12-20T00:35:20;2.77;;;2.00;;
18090;SDS011;9172;49.948;9.208;2023-12-20T00:37:48;4.40;;;2.00;;
18090;SDS011;9172;49.948;9.208;2023-12-20T00:40:17;2.47;;;1.60;;
18090;SDS011;9172;49.948;9.208;2023-12-20T00:42:46;4.33;;;1.83;;
18090;SDS011;9172;49.948;9.208;2023-12-20T00:45:15;3.00;;;1.90;;
18090;SDS011;9172;49.948;9.208;2023-12-20T00:47:44;2.63;;;1.83;;
18090;SDS011;9172;49.948;9.208;2023-12-20T00:50:12;2.57;;;1.63;;
18090;SDS011;9172;49.948;9.208;2023-12-20T00:52:41;3.90;;;1.57;;
18090;SDS011;9172;49.948;9.208;2023-12-20T00:55:21;1.70;;;1.40;;
18090;SDS011;9172;49.948;9.208;2023-12-20T00:57:49;3.37;;;1.73;;
18090;SDS011;9172;49.948;9.208;2023-12-20T01:00:19;2.27;;;1.60;;
18090;SDS011;9172;49.948;9.208;2023-12-20T01:02:48;1.67;;;1.40;;
18090;SDS011;9172;49.948;9.208;2023-12-20T01:05:18;2.00;;;1.53;;
18090;SDS011;9172;49.948;9.208;2023-12-20T01:07:48;2.30;;;1.70;;
18090;SDS011;9172;49.948;9.208;2023-12-20T01:10:17;3.43;;;1.73;;
18090;SDS011;9172;49.948;9.208;2023-12-20T01:12:45;3.47;;;2.00;;
18090;SDS011;9172;49.948;9.208;2023-12-20T01:15:14;2.47;;;1.50;;
18090;SDS011;9172;49.948;9.208;2023-12-20T01:17:43;2.97;;;1.80;;
18090;SDS011;9172;49.948;9.208;2023-12-20T01:20:12;2.17;;;1.60;;
18090;SDS011;9172;49.948;9.208;2023-12-20T01:22:41;2.17;;;1.80;;
18090;SDS011;9172;49.948;9.208;2023-12-20T01:25:11;2.83;;;1.70;;
18090;SDS011;9172;49.948;9.208;2023-12-20T01:27:40;1.57;;;1.23;;
18090;SDS011;9172;49.948;9.208;2023-12-20T01:30:09;2.27;;;1.70;;
18090;SDS011;9172;49.948;9.208;2023-12-20T01:32:38;1.60;;;1.40;;
18090;SDS011;9172;49.948;9.208;2023-12-20T01:35:07;1.77;;;1.33;;
18090;SDS011;9172;49.948;9.208;2023-12-20T01:37:36;2.17;;;1.70;;
18090;SDS011;9172;49.948;9.208;2023-12-20T01:40:05;2.27;;;1.60;;
18090;SDS011;9172;49.948;9.208;2023-12-20T01:42:35;2.00;;;1.40;;
18090;SDS011;9172;49.948;9.208;2023-12-20T01:45:04;2.03;;;1.50;;
18090;SDS011;9172;49.948;9.208;2023-12-20T01:47:34;1.87;;;1.30;;
18090;SDS011;9172;49.948;9.208;2023-12-20T01:50:03;1.70;;;1.33;;
18090;SDS011;9172;49.948;9.208;2023-12-20T01:52:34;2.30;;;1.50;;
18090;SDS011;9172;49.948;9.208;2023-12-20T01:55:04;2.37;;;1.60;;
18090;SDS011;9172;49.948;9.208;2023-12-20T01:57:35;1.93;;;1.60;;
18090;SDS011;9172;49.948;9.208;2023-12-20T02:00:05;2.30;;;1.50;;
18090;SDS011;9172;49.948;9.208;2023-12-20T02:02:36;1.80;;;1.50;;
18090;SDS011;9172;49.948;9.208;2023-12-20T02:05:06;1.57;;;1.40;;
18090;SDS011;9172;49.948;9.208;2023-12-20T02:07:35;2.20;;;1.50;;
18090;SDS011;9172;49.948;9.208;2023-12-20T02:10:04;2.23;;;1.40;;
18090;SDS011;9172;49.948;9.208;2023-12-20T02:12:34;2.17;;;1.60;;
18090;SDS011;9172;49.948;9.208;2023-12-20T02:15:03;2.10;;;1.30;;
18090;SDS011;9172;49.948;9.208;2023-12-20T02:17:33;1.93;;;1.50;;
18090;SDS011;9172;49.948;9.208;2023-12-20T02:20:03;1.47;;;1.20;;
18090;SDS011;9172;49.948;9.208;2023-12-20T02:22:34;1.63;;;1.20;;
18090;SDS011;9172;49.948;9.208;2023-12-20T02:25:02;1.80;;;1.30;;
18090;SDS011;9172;49.948;9.208;2023-12-20T02:27:32;2.07;;;1.60;;
18090;SDS011;9172;49.948;9.208;2023-12-20T02:30:01;1.73;;;1.40;;
18090;SDS011;9172;49.948;9.208;2023-12-20T02:32:31;1.83;;;1.33;;
18090;SDS011;9172;49.948;9.208;2023-12-20T02:34:59;2.80;;;1.83;;
18090;SDS011;9172;49.948;9.208;2023-12-20T02:37:28;3.47;;;1.60;;
18090;SDS011;9172;49.948;9.208;2023-12-20T02:39:56;1.80;;;1.40;;
18090;SDS011;9172;49.948;9.208;2023-12-20T02:42:25;2.00;;;1.40;;
18090;SDS011;9172;49.948;9.208;2023-12-20T02:44:56;2.43;;;1.60;;
18090;SDS011;9172;49.948;9.208;2023-12-20T02:47:27;1.70;;;1.40;;
18090;SDS011;9172;49.948;9.208;2023-12-20T02:49:56;1.40;;;1.20;;
18090;SDS011;9172;49.948;9.208;2023-12-20T02:52:25;2.50;;;1.53;;
18090;SDS011;9172;49.948;9.208;2023-12-20T02:54:55;1.50;;;1.30;;
18090;SDS011;9172;49.948;9.208;2023-12-20T02:57:32;2.13;;;1.50;;
18090;SDS011;9172;49.948;9.208;2023-12-20T03:00:02;2.83;;;1.70;;
18090;SDS011;9172;49.948;9.208;2023-12-20T03:02:34;1.67;;;1.17;;
18090;SDS011;9172;49.948;9.208;2023-12-20T03:05:07;2.93;;;1.50;;
18090;SDS011;9172;49.948;9.208;2023-12-20T03:07:39;1.90;;;1.43;;
18090;SDS011;9172;49.948;9.208;2023-12-20T03:10:18;1.40;;;1.20;;
18090;SDS011;9172;49.948;9.208;2023-12-20T03:12:47;2.33;;;1.70;;
18090;SDS011;9172;49.948;9.208;2023-12-20T03:15:15;1.90;;;1.50;;
18090;SDS011;9172;49.948;9.208;2023-12-20T03:17:44;1.47;;;1.10;;
18090;SDS011;9172;49.948;9.208;2023-12-20T03:20:12;1.57;;;1.20;;
18090;SDS011;9172;49.948;9.208;2023-12-20T03:22:41;1.97;;;1.30;;
18090;SDS011;9172;49.948;9.208;2023-12-20T03:25:10;1.73;;;1.30;;
18090;SDS011;9172;49.948;9.208;2023-12-20T03:27:39;2.63;;;1.67;;
18090;SDS011;9172;49.948;9.208;2023-12-20T03:30:08;1.57;;;1.40;;
18090;SDS011;9172;49.948;9.208;2023-12-20T03:32:38;1.87;;;1.43;;
18090;SDS011;9172;49.948;9.208;2023-12-20T03:35:06;2.70;;;1.63;;
18090;SDS011;9172;49.948;9.208;2023-12-20T03:37:35;3.33;;;1.60;;
18090;SDS011;9172;49.948;9.208;2023-12-20T03:40:04;1.70;;;1.40;;
18090;SDS011;9172;49.948;9.208;2023-12-20T03:42:34;1.60;;;1.30;;
18090;SDS011;9172;49.948;9.208;2023-12-20T03:47:47;1.90;;;1.10;;
18090;SDS011;9172;49.948;9.208;2023-12-20T03:50:16;2.00;;;1.30;;
18090;SDS011;9172;49.948;9.208;2023-12-20T03:52:44;3.03;;;1.27;;
18090;SDS011;9172;49.948;9.208;2023-12-20T03:55:13;1.97;;;1.50;;
18090;SDS011;9172;49.948;9.208;2023-12-20T03:57:42;1.80;;;1.47;;
18090;SDS011;9172;49.948;9.208;2023-12-20T04:00:11;2.03;;;1.43;;
18090;SDS011;9172;49.948;9.208;2023-12-20T04:02:41;2.23;;;1.50;;
18090;SDS011;9172;49.948;9.208;2023-12-20T04:05:10;2.70;;;1.50;;
18090;SDS011;9172;49.948;9.208;2023-12-20T04:07:39;1.97;;;1.40;;
18090;SDS011;9172;49.948;9.208;2023-12-20T04:10:08;1.40;;;1.20;;
18090;SDS011;9172;49.948;9.208;2023-12-20T04:12:36;2.20;;;1.53;;
18090;SDS011;9172;49.948;9.208;2023-12-20T04:15:07;1.93;;;1.33;;
18090;SDS011;9172;49.948;9.208;2023-12-20T04:17:38;2.23;;;1.40;;
18090;SDS011;9172;49.948;9.208;2023-12-20T04:20:07;1.37;;;1.20;;
18090;SDS011;9172;49.948;9.208;2023-12-20T04:22:37;2.03;;;1.40;;
18090;SDS011;9172;49.948;9.208;2023-12-20T04:25:06;1.80;;;1.50;;
18090;SDS011;9172;49.948;9.208;2023-12-20T04:27:35;2.23;;;1.70;;
18090;SDS011;9172;49.948;9.208;2023-12-20T04:30:06;2.83;;;1.90;;
18090;SDS011;9172;49.948;9.208;2023-12-20T04:32:35;8.43;;;4.47;;
18090;SDS011;9172;49.948;9.208;2023-12-20T04:35:05;2.87;;;2.23;;
18090;SDS011;9172;49.948;9.208;2023-12-20T04:37:34;3.00;;;2.20;;
18090;SDS011;9172;49.948;9.208;2023-12-20T04:40:04;2.97;;;1.93;;
18090;SDS011;9172;49.948;9.208;2023-12-20T04:42:34;3.00;;;2.10;;
18090;SDS011;9172;49.948;9.208;2023-12-20T04:45:03;3.47;;;2.40;;
18090;SDS011;9172;49.948;9.208;2023-12-20T04:47:32;2.77;;;1.90;;
18090;SDS011;9172;49.948;9.208;2023-12-20T04:50:01;3.93;;;2.53;;
18090;SDS011;9172;49.948;9.208;2023-12-20T04:52:30;3.60;;;2.07;;
18090;SDS011;9172;49.948;9.208;2023-12-20T04:54:59;3.40;;;2.40;;
18090;SDS011;9172;49.948;9.208;2023-12-20T04:57:27;4.23;;;2.47;;
18090;SDS011;9172;49.948;9.208;2023-12-20T04:59:56;3.57;;;2.73;;
18090;SDS011;9172;49.948;9.208;2023-12-20T05:02:25;2.97;;;2.10;;
18090;SDS011;9172;49.948;9.208;2023-12-20T05:04:53;5.57;;;2.43;;
18090;SDS011;9172;49.948;9.208;2023-12-20T05:07:22;4.67;;;2.97;;
18090;SDS011;9172;49.948;9.208;2023-12-20T05:09:50;3.57;;;2.40;;
18090;SDS011;9172;49.948;9.208;2023-12-20T05:12:19;4.20;;;2.60;;
18090;SDS011;9172;49.948;9.208;2023-12-20T05:14:48;4.00;;;2.50;;
18090;SDS011;9172;49.948;9.208;2023-12-20T05:17:16;4.23;;;2.57;;
18090;SDS011;9172;49.948;9.208;2023-12-20T05:19:46;5.70;;;2.93;;
18090;SDS011;9172;49.948;9.208;2023-12-20T05:22:15;4.80;;;2.93;;
18090;SDS011;9172;49.948;9.208;2023-12-20T05:24:44;3.60;;;2.63;;
18090;SDS011;9172;49.948;9.208;2023-12-20T05:27:12;4.67;;;2.90;;
18090;SDS011;9172;49.948;9.208;2023-12-20T05:32:19;6.33;;;2.73;;
18090;SDS011;9172;49.948;9.208;2023-12-20T05:34:48;4.30;;;2.67;;
18090;SDS011;9172;49.948;9.208;2023-12-20T05:37:16;4.47;;;3.10;;
18090;SDS011;9172;49.948;9.208;2023-12-20T05:39:45;5.87;;;3.20;;
18090;SDS011;9172;49.948;9.208;2023-12-20T05:42:13;4.17;;;2.60;;
18090;SDS011;9172;49.948;9.208;2023-12-20T05:44:42;4.40;;;3.00;;
18090;SDS011;9172;49.948;9.208;2023-12-20T05:47:11;5.60;;;3.33;;
18090;SDS011;9172;49.948;9.208;2023-12-20T05:49:39;5.43;;;3.07;;
18090;SDS011;9172;49.948;9.208;2023-12-20T05:52:08;6.23;;;3.60;;
18090;SDS011;9172;49.948;9.208;2023-12-20T05:54:37;6.50;;;3.50;;
18090;SDS011;9172;49.948;9.208;2023-12-20T05:57:05;4.57;;;3.00;;
18090;SDS011;9172;49.948;9.208;2023-12-20T05:59:34;4.53;;;3.07;;
18090;SDS011;9172;49.948;9.208;2023-12-20T06:02:03;4.33;;;2.83;;
18090;SDS011;9172;49.948;9.208;2023-12-20T06:04:32;5.23;;;3.03;;
18090;SDS011;9172;49.948;9.208;2023-12-20T06:07:01;4.30;;;2.80;;
18090;SDS011;9172;49.948;9.208;2023-12-20T06:09:30;4.30;;;2.97;;
18090;SDS011;9172;49.948;9.208;2023-12-20T06:11:59;5.57;;;3.33;;
18090;SDS011;9172;49.948;9.208;2023-12-20T06:14:27;7.53;;;3.20;;
18090;SDS011;9172;49.948;9.208;2023-12-20T06:16:57;4.30;;;2.77;;
18090;SDS011;9172;49.948;9.208;2023-12-20T06:19:25;4.53;;;2.97;;
18090;SDS011;9172;49.948;9.208;2023-12-20T06:21:54;5.77;;;2.70;;
18090;SDS011;9172;49.948;9.208;2023-12-20T06:24:22;8.10;;;3.37;;
18090;SDS011;9172;49.948;9.208;2023-12-20T06:26:53;3.40;;;2.60;;
18090;SDS011;9172;49.948;9.208;2023-12-20T06:29:22;4.87;;;2.73;;
18090;SDS011;9172;49.948;9.208;2023-12-20T06:31:51;4.30;;;2.63;;
18090;SDS011;9172;49.948;9.208;2023-12-20T06:34:19;4.00;;;2.43;;
18090;SDS011;9172;49.948;9.208;2023-12-20T06:36:48;5.40;;;2.60;;
18090;SDS011;9172;49.948;9.208;2023-12-20T06:39:16;2.70;;;1.87;;
18090;SDS011;9172;49.948;9.208;2023-12-20T06:41:46;3.30;;;1.87;;
18090;SDS011;9172;49.948;9.208;2023-12-20T06:44:15;5.93;;;2.00;;
18090;SDS011;9172;49.948;9.208;2023-12-20T06:46:48;2.70;;;1.70;;
18090;SDS011;9172;49.948;9.208;2023-12-20T06:49:16;4.67;;;1.97;;
18090;SDS011;9172;49.948;9.208;2023-12-20T06:51:45;10.80;;;4.30;;
18090;SDS011;9172;49.948;9.208;2023-12-20T06:54:14;3.40;;;2.20;;
18090;SDS011;9172;49.948;9.208;2023-12-20T06:56:42;3.57;;;2.10;;
18090;SDS011;9172;49.948;9.208;2023-12-20T06:59:11;5.17;;;2.23;;
18090;SDS011;9172;49.948;9.208;2023-12-20T07:01:40;7.43;;;2.20;;
18090;SDS011;9172;49.948;9.208;2023-12-20T07:04:08;2.70;;;1.70;;
18090;SDS011;9172;49.948;9.208;2023-12-20T07:06:38;5.87;;;2.07;;
18090;SDS011;9172;49.948;9.208;2023-12-20T07:09:09;3.47;;;1.90;;
18090;SDS011;9172;49.948;9.208;2023-12-20T07:11:40;6.07;;;1.83;;
18090;SDS011;9172;49.948;9.208;2023-12-20T07:14:14;2.77;;;1.90;;
18090;SDS011;9172;49.948;9.208;2023-12-20T07:16:42;3.93;;;1.73;;
18090;SDS011;9172;49.948;9.208;2023-12-20T07:19:11;5.63;;;2.13;;
18090;SDS011;9172;49.948;9.208;2023-12-20T07:21:40;3.33;;;2.00;;
18090;SDS011;9172;49.948;9.208;2023-12-20T07:24:08;4.30;;;1.97;;
18090;SDS011;9172;49.948;9.208;2023-12-20T07:26:37;2.47;;;1.77;;
18090;SDS011;9172;49.948;9.208;2023-12-20T07:29:06;4.47;;;2.03;;
18090;SDS011;9172;49.948;9.208;2023-12-20T07:31:34;3.60;;;2.00;;
18090;SDS011;9172;49.948;9.208;2023-12-20T07:34:03;2.50;;;1.83;;
18090;SDS011;9172;49.948;9.208;2023-12-20T07:36:32;5.10;;;2.23;;
18090;SDS011;9172;49.948;9.208;2023-12-20T07:39:00;2.67;;;1.70;;
18090;SDS011;9172;49.948;9.208;2023-12-20T07:41:29;7.13;;;1.83;;
18090;SDS011;9172;49.948;9.208;2023-12-20T07:43:58;6.43;;;1.97;;
18090;SDS011;9172;49.948;9.208;2023-12-20T07:46:26;3.27;;;1.70;;
18090;SDS011;9172;49.948;9.208;2023-12-20T07:48:55;3.60;;;2.00;;
18090;SDS011;9172;49.948;9.208;2023-12-20T07:51:26;7.93;;;2.03;;
18090;SDS011;9172;49.948;9.208;2023-12-20T07:53:54;7.73;;;2.13;;
18090;SDS011;9172;49.948;9.208;2023-12-20T07:56:23;8.43;;;2.23;;
18090;SDS011;9172;49.948;9.208;2023-12-20T07:58:52;4.03;;;1.93;;
18090;SDS011;9172;49.948;9.208;2023-12-20T08:01:20;6.07;;;1.83;;
18090;SDS011;9172;49.948;9.208;2023-12-20T08:03:49;3.27;;;1.83;;
18090;SDS011;9172;49.948;9.208;2023-12-20T08:06:18;4.70;;;1.90;;
18090;SDS011;9172;49.948;9.208;2023-12-20T08:08:47;9.13;;;1.60;;
18090;SDS011;9172;49.948;9.208;2023-12-20T08:11:15;4.73;;;1.70;;
18090;SDS011;9172;49.948;9.208;2023-12-20T08:13:44;2.60;;;1.70;;
18090;SDS011;9172;49.948;9.208;2023-12-20T08:16:13;7.43;;;1.80;;
18090;SDS011;9172;49.948;9.208;2023-12-20T08:18:43;7.43;;;1.77;;
18090;SDS011;9172;49.948;9.208;2023-12-20T08:21:13;3.40;;;1.60;;
18090;SDS011;9172;49.948;9.208;2023-12-20T08:23:41;4.47;;;1.30;;
18090;SDS011;9172;49.948;9.208;2023-12-20T08:26:11;2.70;;;1.63;;
18090;SDS011;9172;49.948;9.208;2023-12-20T08:28:40;4.17;;;1.43;;
18090;SDS011;9172;49.948;9.208;2023-12-20T08:31:13;5.07;;;1.40;;
18090;SDS011;9172;49.948;9.208;2023-12-20T08:33:43;6.67;;;1.77;;
18090;SDS011;9172;49.948;9.208;2023-12-20T08:36:13;2.20;;;1.60;;
18090;SDS011;9172;49.948;9.208;2023-12-20T08:38:43;3.47;;;1.73;;
18090;SDS011;9172;49.948;9.208;2023-12-20T08:41:12;8.67;;;2.00;;
18090;SDS011;9172;49.948;9.208;2023-12-20T08:43:41;3.60;;;1.40;;
18090;SDS011;9172;49.948;9.208;2023-12-20T08:46:09;7.37;;;1.43;;
18090;SDS011;9172;49.948;9.208;2023-12-20T08:51:37;6.73;;;1.30;;
18090;SDS011;9172;49.948;9.208;2023-12-20T08:54:09;4.37;;;1.77;;
18090;SDS011;9172;49.948;9.208;2023-12-20T08:56:39;3.37;;;1.30;;
18090;SDS011;9172;49.948;9.208;2023-12-20T08:59:08;3.87;;;1.60;;
18090;SDS011;9172;49.948;9.208;2023-12-20T09:01:36;4.60;;;1.83;;
18090;SDS011;9172;49.948;9.208;2023-12-20T09:04:05;2.50;;;1.17;;
18090;SDS011;9172;49.948;9.208;2023-12-20T09:06:34;5.53;;;1.67;;
18090;SDS011;9172;49.948;9.208;2023-12-20T09:09:02;5.77;;;1.47;;
18090;SDS011;9172;49.948;9.208;2023-12-20T09:11:32;4.03;;;1.40;;
18090;SDS011;9172;49.948;9.208;2023-12-20T09:14:01;2.77;;;1.43;;
18090;SDS011;9172;49.948;9.208;2023-12-20T09:16:29;8.27;;;1.53;;
18090;SDS011;9172;49.948;9.208;2023-12-20T09:18:58;16.27;;;2.30;;
18090;SDS011;9172;49.948;9.208;2023-12-20T09:21:26;2.93;;;1.67;;
18090;SDS011;9172;49.948;9.208;2023-12-20T09:23:55;5.40;;;1.53;;
18090;SDS011;9172;49.948;9.208;2023-12-20T09:26:23;6.70;;;1.60;;
18090;SDS011;9172;49.948;9.208;2023-12-20T09:28:52;9.17;;;1.90;;
18090;SDS011;9172;49.948;9.208;2023-12-20T09:31:21;3.60;;;1.87;;
18090;SDS011;9172;49.948;9.208;2023-12-20T09:33:49;9.53;;;1.50;;
18090;SDS011;9172;49.948;9.208;2023-12-20T09:36:18;8.10;;;1.47;;
18090;SDS011;9172;49.948;9.208;2023-12-20T09:38:46;9.23;;;1.90;;
18090;SDS011;9172;49.948;9.208;2023-12-20T09:41:15;4.03;;;1.57;;
18090;SDS011;9172;49.948;9.208;2023-12-20T09:43:44;5.73;;;1.87;;
18090;SDS011;9172;49.948;9.208;2023-12-20T09:46:12;3.47;;;1.30;;
18090;SDS011;9172;49.948;9.208;2023-12-20T09:48:51;5.20;;;1.60;;
18090;SDS011;9172;49.948;9.208;2023-12-20T09:51:20;4.27;;;2.03;;
18090;SDS011;9172;49.948;9.208;2023-12-20T09:53:49;4.13;;;1.10;;
18090;SDS011;9172;49.948;9.208;2023-12-20T09:56:20;3.83;;;1.30;;
18090;SDS011;9172;49.948;9.208;2023-12-20T09:58:49;9.70;;;1.93;;
18090;SDS011;9172;49.948;9.208;2023-12-20T10:01:20;8.20;;;1.50;;
18090;SDS011;9172;49.948;9.208;2023-12-20T10:03:50;7.60;;;1.93;;
18090;SDS011;9172;49.948;9.208;2023-12-20T10:06:21;9.30;;;1.40;;
18090;SDS011;9172;49.948;9.208;2023-12-20T10:08:50;2.67;;;1.17;;
18090;SDS011;9172;49.948;9.208;2023-12-20T10:11:19;3.17;;;1.20;;
18090;SDS011;9172;49.948;9.208;2023-12-20T10:13:47;6.40;;;1.13;;
18090;SDS011;9172;49.948;9.208;2023-12-20T10:16:16;6.97;;;1.50;;
18090;SDS011;9172;49.948;9.208;2023-12-20T10:18:45;5.60;;;1.27;;
18090;SDS011;9172;49.948;9.208;2023-12-20T10:21:14;11.10;;;1.90;;
18090;SDS011;9172;49.948;9.208;2023-12-20T10:23:42;8.57;;;1.50;;
18090;SDS011;9172;49.948;9.208;2023-12-20T10:26:11;3.73;;;1.50;;
18090;SDS011;9172;49.948;9.208;2023-12-20T10:28:49;12.27;;;2.03;;
18090;SDS011;9172;49.948;9.208;2023-12-20T10:31:26;5.87;;;1.70;;
18090;SDS011;9172;49.948;9.208;2023-12-20T10:33:56;3.07;;;1.40;;
18090;SDS011;9172;49.948;9.208;2023-12-20T10:36:30;4.80;;;1.70;;
18090;SDS011;9172;49.948;9.208;2023-12-20T10:38:59;2.57;;;1.27;;
18090;SDS011;9172;49.948;9.208;2023-12-20T10:41:30;6.60;;;1.50;;
18090;SDS011;9172;49.948;9.208;2023-12-20T10:44:00;6.23;;;1.73;;
18090;SDS011;9172;49.948;9.208;2023-12-20T10:46:29;3.67;;;1.60;;
18090;SDS011;9172;49.948;9.208;2023-12-20T10:48:59;9.90;;;1.80;;
18090;SDS011;9172;49.948;9.208;2023-12-20T10:51:31;5.63;;;1.53;;
18090;SDS011;9172;49.948;9.208;2023-12-20T10:54:05;6.67;;;1.50;;
18090;SDS011;9172;49.948;9.208;2023-12-20T10:56:35;3.33;;;1.60;;
18090;SDS011;9172;49.948;9.208;2023-12-20T10:59:05;9.70;;;2.00;;
18090;SDS011;9172;49.948;9.208;2023-12-20T11:01:37;4.90;;;1.40;;
18090;SDS011;9172;49.948;9.208;2023-12-20T11:04:08;7.63;;;1.60;;
18090;SDS011;9172;49.948;9.208;2023-12-20T11:06:43;3.27;;;1.70;;
18090;SDS011;9172;49.948;9.208;2023-12-20T11:09:24;5.90;;;1.57;;
18090;SDS011;9172;49.948;9.208;2023-12-20T11:12:01;5.37;;;1.60;;
18090;SDS011;9172;49.948;9.208;2023-12-20T11:14:43;5.43;;;1.00;;
18090;SDS011;9172;49.948;9.208;2023-12-20T11:17:13;5.93;;;1.57;;
18090;SDS011;9172;49.948;9.208;2023-12-20T11:20:03;5.40;;;1.80;;
18090;SDS011;9172;49.948;9.208;2023-12-20T11:22:38;3.73;;;1.57;;
18090;SDS011;9172;49.948;9.208;2023-12-20T11:25:11;5.67;;;1.43;;
18090;SDS011;9172;49.948;9.208;2023-12-20T11:27:41;4.00;;;1.60;;
18090;SDS011;9172;49.948;9.208;2023-12-20T11:30:13;6.87;;;1.87;;
18090;SDS011;9172;49.948;9.208;2023-12-20T11:32:43;8.33;;;2.53;;
18090;SDS011;9172;49.948;9.208;2023-12-20T11:35:22;3.40;;;1.80;;
18090;SDS011;9172;49.948;9.208;2023-12-20T11:37:57;6.83;;;1.40;;
18090;SDS011;9172;49.948;9.208;2023-12-20T11:40:29;7.33;;;1.97;;
18090;SDS011;9172;49.948;9.208;2023-12-20T11:43:10;4.87;;;1.90;;
18090;SDS011;9172;49.948;9.208;2023-12-20T11:45:39;11.57;;;1.60;;
18090;SDS011;9172;49.948;9.208;2023-12-20T11:48:20;4.63;;;1.63;;
18090;SDS011;9172;49.948;9.208;2023-12-20T11:50:49;6.47;;;1.90;;
18090;SDS011;9172;49.948;9.208;2023-12-20T11:53:18;3.47;;;1.27;;
18090;SDS011;9172;49.948;9.208;2023-12-20T11:58:32;7.07;;;1.80;;
18090;SDS011;9172;49.948;9.208;2023-12-20T12:01:08;6.37;;;1.77;;
18090;SDS011;9172;49.948;9.208;2023-12-20T12:03:37;3.53;;;1.37;;
18090;SDS011;9172;49.948;9.208;2023-12-20T12:06:07;4.03;;;1.03;;
18090;SDS011;9172;49.948;9.208;2023-12-20T12:08:37;6.13;;;2.33;;
18090;SDS011;9172;49.948;9.208;2023-12-20T12:11:05;4.23;;;1.50;;
18090;SDS011;9172;49.948;9.208;2023-12-20T12:13:34;4.70;;;1.50;;
18090;SDS011;9172;49.948;9.208;2023-12-20T12:16:04;6.73;;;1.83;;
18090;SDS011;9172;49.948;9.208;2023-12-20T12:18:33;2.57;;;1.03;;
18090;SDS011;9172;49.948;9.208;2023-12-20T12:21:03;5.60;;;1.73;;
18090;SDS011;9172;49.948;9.208;2023-12-20T12:26:08;6.70;;;1.43;;
18090;SDS011;9172;49.948;9.208;2023-12-20T12:28:37;4.03;;;1.93;;
18090;SDS011;9172;49.948;9.208;2023-12-20T12:31:08;4.53;;;1.23;;
18090;SDS011;9172;49.948;9.208;2023-12-20T12:33:38;7.43;;;1.60;;
18090;SDS011;9172;49.948;9.208;2023-12-20T12:36:08;2.03;;;1.10;;
18090;SDS011;9172;49.948;9.208;2023-12-20T12:38:37;3.17;;;1.60;;
18090;SDS011;9172;49.948;9.208;2023-12-20T12:41:06;6.63;;;1.53;;
18090;SDS011;9172;49.948;9.208;2023-12-20T12:43:36;7.47;;;1.90;;
18090;SDS011;9172;49.948;9.208;2023-12-20T12:46:04;6.53;;;1.50;;
18090;SDS011;9172;49.948;9.208;2023-12-20T12:48:33;7.93;;;1.60;;
18090;SDS011;9172;49.948;9.208;2023-12-20T12:51:02;5.93;;;2.00;;
18090;SDS011;9172;49.948;9.208;2023-12-20T12:53:33;5.73;;;3.23;;
18090;SDS011;9172;49.948;9.208;2023-12-20T12:56:02;6.17;;;2.40;;
18090;SDS011;9172;49.948;9.208;2023-12-20T12:58:31;7.77;;;1.67;;
18090;SDS011;9172;49.948;9.208;2023-12-20T13:01:01;9.73;;;2.77;;
18090;SDS011;9172;49.948;9.208;2023-12-20T13:03:30;6.97;;;1.87;;
18090;SDS011;9172;49.948;9.208;2023-12-20T13:06:00;9.03;;;1.87;;
18090;SDS011;9172;49.948;9.208;2023-12-20T13:08:29;5.33;;;1.90;;
18090;SDS011;9172;49.948;9.208;2023-12-20T13:10:57;5.07;;;1.37;;
18090;SDS011;9172;49.948;9.208;2023-12-20T13:13:27;4.67;;;1.70;;
18090;SDS011;9172;49.948;9.208;2023-12-20T13:18:31;3.67;;;1.67;;
18090;SDS011;9172;49.948;9.208;2023-12-20T13:21:00;6.80;;;1.93;;
18090;SDS011;9172;49.948;9.208;2023-12-20T13:23:28;11.03;;;2.17;;
18090;SDS011;9172;49.948;9.208;2023-12-20T13:25:57;4.70;;;1.40;;
18090;SDS011;9172;49.948;9.208;2023-12-20T13:28:26;8.77;;;2.00;;
18090;SDS011;9172;49.948;9.208;2023-12-20T13:30:54;4.77;;;1.47;;
18090;SDS011;9172;49.948;9.208;2023-12-20T13:33:23;5.73;;;1.70;;
18090;SDS011;9172;49.948;9.208;2023-12-20T13:35:51;5.97;;;1.53;;
18090;SDS011;9172;49.948;9.208;2023-12-20T13:38:20;8.33;;;1.60;;
18090;SDS011;9172;49.948;9.208;2023-12-20T13:40:49;5.57;;;1.47;;
18090;SDS011;9172;49.948;9.208;2023-12-20T13:43:17;4.20;;;1.93;;
18090;SDS011;9172;49.948;9.208;2023-12-20T13:45:47;9.07;;;2.50;;
18090;SDS011;9172;49.948;9.208;2023-12-20T13:48:18;7.33;;;1.93;;
18090;SDS011;9172;49.948;9.208;2023-12-20T13:50:47;9.13;;;3.00;;
18090;SDS011;9172;49.948;9.208;2023-12-20T13:53:15;9.43;;;2.40;;
18090;SDS011;9172;49.948;9.208;2023-12-20T13:55:45;7.07;;;2.37;;
18090;SDS011;9172;49.948;9.208;2023-12-20T13:58:14;6.43;;;2.80;;
18090;SDS011;9172;49.948;9.208;2023-12-20T14:00:43;4.83;;;1.70;;
18090;SDS011;9172;49.948;9.208;2023-12-20T14:03:12;6.37;;;1.73;;
18090;SDS011;9172;49.948;9.208;2023-12-20T14:05:40;5.83;;;1.80;;
18090;SDS011;9172;49.948;9.208;2023-12-20T14:10:48;4.10;;;1.67;;
18090;SDS011;9172;49.948;9.208;2023-12-20T14:13:17;6.33;;;2.13;;
18090;SDS011;9172;49.948;9.208;2023-12-20T14:15:45;4.23;;;1.43;;
18090;SDS011;9172;49.948;9.208;2023-12-20T14:18:15;6.40;;;2.90;;
18090;SDS011;9172;49.948;9.208;2023-12-20T14:20:44;6.60;;;2.27;;
18090;SDS011;9172;49.948;9.208;2023-12-20T14:23:13;5.57;;;1.57;;
18090;SDS011;9172;49.948;9.208;2023-12-20T14:25:42;10.00;;;1.80;;
18090;SDS011;9172;49.948;9.208;2023-12-20T14:28:11;3.90;;;2.10;;
18090;SDS011;9172;49.948;9.208;2023-12-20T14:30:40;11.23;;;3.83;;
18090;SDS011;9172;49.948;9.208;2023-12-20T14:33:09;18.77;;;3.00;;
18090;SDS011;9172;49.948;9.208;2023-12-20T14:35:37;9.20;;;2.47;;
18090;SDS011;9172;49.948;9.208;2023-12-20T14:38:08;6.53;;;1.80;;
18090;SDS011;9172;49.948;9.208;2023-12-20T14:40:36;7.03;;;1.93;;
18090;SDS011;9172;49.948;9.208;2023-12-20T14:43:05;7.70;;;1.70;;
18090;SDS011;9172;49.948;9.208;2023-12-20T14:45:33;5.57;;;2.10;;
18090;SDS011;9172;49.948;9.208;2023-12-20T14:48:02;5.50;;;1.53;;
18090;SDS011;9172;49.948;9.208;2023-12-20T14:50:32;9.47;;;1.90;;
18090;SDS011;9172;49.948;9.208;2023-12-20T14:53:03;10.47;;;2.03;;
18090;SDS011;9172;49.948;9.208;2023-12-20T14:55:31;13.93;;;2.27;;
18090;SDS011;9172;49.948;9.208;2023-12-20T14:58:01;7.60;;;1.60;;
18090;SDS011;9172;49.948;9.208;2023-12-20T15:00:31;5.87;;;1.60;;
18090;SDS011;9172;49.948;9.208;2023-12-20T15:03:08;3.90;;;1.60;;
18090;SDS011;9172;49.948;9.208;2023-12-20T15:05:39;7.03;;;1.43;;
18090;SDS011;9172;49.948;9.208;2023-12-20T15:08:11;7.27;;;1.80;;
18090;SDS011;9172;49.948;9.208;2023-12-20T15:10:40;8.63;;;2.10;;
18090;SDS011;9172;49.948;9.208;2023-12-20T15:13:09;8.53;;;2.53;;
18090;SDS011;9172;49.948;9.208;2023-12-20T15:15:38;4.67;;;1.47;;
18090;SDS011;9172;49.948;9.208;2023-12-20T15:20:57;15.57;;;2.30;;
18090;SDS011;9172;49.948;9.208;2023-12-20T15:23:26;6.33;;;2.13;;
18090;SDS011;9172;49.948;9.208;2023-12-20T15:29:05;2.07;;;1.50;;
18090;SDS011;9172;49.948;9.208;2023-12-20T15:31:43;4.77;;;2.20;;
18090;SDS011;9172;49.948;9.208;2023-12-20T15:34:16;4.47;;;1.50;;
18090;SDS011;9172;49.948;9.208;2023-12-20T15:36:46;5.93;;;1.30;;
18090;SDS011;9172;49.948;9.208;2023-12-20T15:39:15;6.23;;;1.73;;
18090;SDS011;9172;49.948;9.208;2023-12-20T15:41:44;6.33;;;1.63;;